Volo, Illinois
Current Conditions -  °F | °C
As of 9:55 PM on Friday 24 Oct 2014 (Local Time) from KUGN Reporting Station
Haze Haze  
Wind Chill: 54°   Ceiling: 4200
Heat Index: 54°   Visibility: 4mi
Dew Point: 51°   Wind: 0mph
Humidity: 90%   Direction: NA
Pressure: 29.93"   Gusts: NA
Location:  42.3279°N, 88.0546°W
Report Text: KUGN 250255Z AUTO 00000KT 4SM BR OVC042 12/11 A2993 RMK AO2 RAB13E25 SLP135 P0001 60001 T01220106 55005
Loading
Personal Weather Stations






























Interactive Weather Map
Tropical Storm Tracking
New forecast layout! Learn more

10-Day Weather Forecast

Advertisements
Track Severe Weather on mobile